Time;durP1;ratioP1;P1;durP2;ratioP2;P2;SDS_P1;SDS_P2;PMS_P1;PMS_P2;Temp;Humidity;BMP_temperature;BMP_pressure;BME280_temperature;BME280_humidity;BME280_pressure;Samples;Min_cycle;Max_cycle;Signal;HPM_P1;HPM_P2
2023/06/09 00:01:48;;;;;;;24.83;8.85;;;11.30;99.90;;;;;;5042429;28;20471;-63
2023/06/09 00:04:14;;;;;;;29.77;8.23;;;11.40;99.90;;;;;;5043186;28;20060;-62
2023/06/09 00:06:40;;;;;;;29.45;8.48;;;11.30;99.90;;;;;;5041414;28;20094;-64
2023/06/09 00:09:07;;;;;;;24.80;8.65;;;11.30;99.90;;;;;;5042230;28;20049;-63
2023/06/09 00:11:33;;;;;;;28.95;8.65;;;11.30;99.90;;;;;;5043277;28;20083;-64
2023/06/09 00:13:59;;;;;;;26.10;9.23;;;11.30;99.90;;;;;;5043095;28;20041;-62
2023/06/09 00:16:26;;;;;;;26.17;8.68;;;11.30;99.90;;;;;;5043008;28;20041;-62
2023/06/09 00:18:52;;;;;;;27.92;8.70;;;11.30;99.90;;;;;;5042220;28;20053;-64
2023/06/09 00:21:19;;;;;;;29.80;8.50;;;11.30;99.90;;;;;;5041815;28;20041;-62
2023/06/09 00:23:45;;;;;;;33.47;9.48;;;11.30;99.90;;;;;;5041934;28;20072;-63
2023/06/09 00:26:11;;;;;;;30.05;9.35;;;11.30;99.90;;;;;;5042864;28;20753;-62
2023/06/09 00:28:37;;;;;;;27.17;8.95;;;11.30;99.90;;;;;;5042497;28;20131;-64
2023/06/09 00:31:03;;;;;;;26.30;9.32;;;11.30;99.90;;;;;;5042761;28;20123;-63
2023/06/09 00:33:28;;;;;;;33.25;10.02;;;11.20;99.90;;;;;;5042424;28;20048;-64
2023/06/09 00:35:54;;;;;;;29.77;9.73;;;11.20;99.90;;;;;;5059081;28;20412;-64
2023/06/09 00:38:20;;;;;;;31.02;10.02;;;11.20;99.90;;;;;;5060844;28;20040;-65
2023/06/09 00:40:45;;;;;;;33.40;10.10;;;11.20;99.90;;;;;;5047832;28;20227;-64
2023/06/09 00:43:11;;;;;;;31.13;9.93;;;11.20;99.90;;;;;;5047215;28;20517;-64
2023/06/09 00:45:36;;;;;;;27.85;9.25;;;11.20;99.90;;;;;;5046128;28;20055;-63
2023/06/09 00:48:03;;;;;;;26.38;9.82;;;11.20;99.90;;;;;;5047832;28;20495;-63
2023/06/09 00:50:29;;;;;;;32.50;10.23;;;11.20;99.90;;;;;;5046490;28;20037;-63
2023/06/09 00:52:56;;;;;;;25.88;9.52;;;11.20;99.90;;;;;;5045115;28;20041;-62
2023/06/09 00:55:22;;;;;;;28.67;9.60;;;11.20;99.90;;;;;;5046453;28;20331;-64
2023/06/09 00:57:55;;;;;;;27.48;8.50;;;11.20;99.90;;;;;;5046662;28;20099;-63
2023/06/09 01:00:24;;;;;;;28.27;9.50;;;11.20;99.90;;;;;;5045812;28;20059;-63
2023/06/09 01:02:50;;;;;;;30.20;9.10;;;11.20;99.90;;;;;;5046649;28;20044;-62
2023/06/09 01:05:16;;;;;;;25.55;9.23;;;11.20;99.90;;;;;;5046787;28;20041;-63
2023/06/09 01:08:01;;;;;;;34.45;10.32;;;11.20;99.90;;;;;;5046031;28;20091;-63
2023/06/09 01:10:37;;;;;;;22.55;8.80;;;11.20;99.90;;;;;;5045658;28;20053;-62
2023/06/09 01:13:42;;;;;;;24.60;9.00;;;11.10;99.90;;;;;;5047285;28;20495;-62
2023/06/09 01:16:19;;;;;;;34.72;10.07;;;11.20;99.90;;;;;;5056146;28;20056;-63
2023/06/09 01:18:47;;;;;;;28.20;9.05;;;11.20;99.90;;;;;;5076978;28;20080;-61
2023/06/09 01:21:12;;;;;;;24.73;8.98;;;11.10;99.90;;;;;;5046022;28;20099;-63
2023/06/09 01:24:04;;;;;;;31.67;9.30;;;11.20;99.90;;;;;;5045034;28;20048;-63
2023/06/09 01:26:32;;;;;;;25.50;9.32;;;11.20;99.90;;;;;;5046923;28;20072;-63
2023/06/09 01:28:59;;;;;;;30.20;10.15;;;11.20;99.90;;;;;;5046416;28;20407;-62
2023/06/09 01:31:25;;;;;;;28.75;9.45;;;11.10;99.90;;;;;;5045523;28;20538;-65
2023/06/09 01:33:51;;;;;;;32.38;9.93;;;11.20;99.90;;;;;;5044754;28;20064;-63
2023/06/09 01:36:17;;;;;;;41.80;10.00;;;11.10;99.90;;;;;;5044208;28;20049;-63
2023/06/09 01:38:43;;;;;;;32.08;11.07;;;11.20;99.90;;;;;;5044230;28;20052;-62
2023/06/09 01:41:09;;;;;;;29.70;10.23;;;11.20;99.90;;;;;;5045484;28;20071;-64
2023/06/09 01:43:35;;;;;;;33.47;11.27;;;11.10;99.90;;;;;;5044749;28;20041;-62
2023/06/09 01:46:00;;;;;;;33.20;10.35;;;11.10;99.90;;;;;;5046216;28;20037;-64
2023/06/09 01:48:57;;;;;;;32.40;10.40;;;11.10;99.90;;;;;;5044223;28;20041;-63
2023/06/09 01:51:33;;;;;;;33.13;9.88;;;11.10;99.90;;;;;;5045488;28;20037;-63
2023/06/09 01:54:07;;;;;;;32.35;10.05;;;11.10;99.90;;;;;;5049840;28;20049;-65
2023/06/09 01:56:45;;;;;;;27.00;10.55;;;11.10;99.90;;;;;;5064899;28;20052;-63
2023/06/09 01:59:15;;;;;;;27.63;10.35;;;11.10;99.90;;;;;;5057813;28;20160;-63
2023/06/09 02:01:43;;;;;;;30.52;10.32;;;11.10;99.90;;;;;;5044633;28;20579;-64
2023/06/09 02:04:12;;;;;;;31.30;10.57;;;11.10;99.90;;;;;;5044781;28;20049;-63
2023/06/09 02:06:38;;;;;;;30.08;10.75;;;11.10;99.90;;;;;;5044443;28;20048;-65
2023/06/09 02:09:04;;;;;;;26.95;10.30;;;11.10;99.90;;;;;;5043942;28;20052;-63
2023/06/09 02:11:30;;;;;;;30.73;10.65;;;11.10;99.90;;;;;;5044356;28;20041;-64
2023/06/09 02:13:56;;;;;;;30.98;10.43;;;11.10;99.90;;;;;;5044716;28;20110;-63
2023/06/09 02:16:24;;;;;;;25.10;10.18;;;11.10;99.90;;;;;;5044691;28;20076;-62
2023/06/09 02:18:50;;;;;;;28.98;8.93;;;11.10;99.90;;;;;;5043705;28;20040;-63
2023/06/09 02:21:16;;;;;;;35.83;10.25;;;11.00;99.90;;;;;;5044872;28;20041;-61
2023/06/09 02:23:41;;;;;;;30.80;9.85;;;11.10;99.90;;;;;;5043566;28;20048;-63
2023/06/09 02:26:07;;;;;;;33.40;11.15;;;11.10;99.90;;;;;;5045934;28;20029;-62
2023/06/09 02:28:33;;;;;;;30.67;10.57;;;11.10;99.90;;;;;;5060820;28;20738;-64
2023/06/09 02:31:00;;;;;;;36.10;10.75;;;11.10;99.90;;;;;;5044207;28;20432;-62
2023/06/09 02:33:26;;;;;;;31.00;10.10;;;11.10;99.90;;;;;;5043765;28;20055;-62
2023/06/09 02:35:52;;;;;;;38.63;10.90;;;11.10;99.90;;;;;;5042802;28;20458;-64
2023/06/09 02:38:18;;;;;;;32.15;10.18;;;11.10;99.90;;;;;;5049625;28;20074;-63
2023/06/09 02:40:47;;;;;;;31.90;10.93;;;11.10;99.90;;;;;;5065789;28;20036;-64
2023/06/09 02:43:13;;;;;;;42.83;11.65;;;11.10;99.90;;;;;;5063882;28;20040;-63
2023/06/09 02:45:39;;;;;;;32.40;11.55;;;11.10;99.90;;;;;;5062158;28;20051;-64
2023/06/09 02:48:05;;;;;;;39.13;11.63;;;11.10;99.90;;;;;;5043505;28;20167;-64
2023/06/09 02:50:31;;;;;;;31.23;10.90;;;11.10;99.90;;;;;;5043491;28;20106;-63
2023/06/09 02:52:57;;;;;;;32.22;12.23;;;11.10;99.90;;;;;;5043239;28;20052;-63
2023/06/09 02:55:22;;;;;;;33.92;11.85;;;11.00;99.90;;;;;;5043554;28;20500;-64
2023/06/09 02:57:48;;;;;;;35.00;11.38;;;11.10;99.90;;;;;;5043587;28;20076;-64
2023/06/09 03:00:15;;;;;;;32.75;10.88;;;11.00;99.90;;;;;;5072653;28;20064;-63
2023/06/09 03:02:41;;;;;;;33.60;11.43;;;11.00;99.90;;;;;;5080029;28;20037;-63
2023/06/09 03:05:08;;;;;;;41.65;11.95;;;11.00;99.90;;;;;;5047695;28;20554;-64
2023/06/09 03:07:33;;;;;;;37.85;12.05;;;11.00;99.90;;;;;;5043184;28;20144;-64
2023/06/09 03:10:00;;;;;;;39.88;12.68;;;11.00;99.90;;;;;;5043561;28;20124;-63
2023/06/09 03:12:26;;;;;;;34.25;12.68;;;11.00;99.90;;;;;;5043930;28;20037;-64
2023/06/09 03:14:51;;;;;;;35.47;12.88;;;11.00;99.90;;;;;;5043451;28;20603;-64
2023/06/09 03:17:17;;;;;;;32.00;11.65;;;11.00;99.90;;;;;;5027359;28;20061;-62
2023/06/09 03:19:43;;;;;;;38.25;12.48;;;11.00;99.90;;;;;;5043168;28;20447;-63
2023/06/09 03:22:09;;;;;;;36.50;12.07;;;11.00;99.90;;;;;;5042624;28;20037;-63
2023/06/09 03:24:35;;;;;;;37.92;13.23;;;11.00;99.90;;;;;;5043952;28;20049;-64
2023/06/09 03:27:00;;;;;;;36.63;11.80;;;11.10;99.90;;;;;;5043538;28;20049;-63
2023/06/09 03:29:28;;;;;;;37.58;11.68;;;11.00;99.90;;;;;;5043263;28;20048;-64
2023/06/09 03:31:54;;;;;;;32.47;11.93;;;11.10;99.90;;;;;;5059525;28;20118;-63
2023/06/09 03:34:20;;;;;;;35.83;12.40;;;11.10;99.90;;;;;;5063320;28;20044;-63
2023/06/09 03:36:46;;;;;;;33.83;12.23;;;11.10;99.90;;;;;;5063159;28;20044;-63
2023/06/09 03:39:12;;;;;;;34.53;12.05;;;11.00;99.90;;;;;;5064742;28;20112;-63
2023/06/09 03:41:37;;;;;;;34.88;12.50;;;11.10;99.90;;;;;;5063605;28;20491;-64
2023/06/09 03:44:03;;;;;;;31.65;12.00;;;11.10;99.90;;;;;;5060858;28;20055;-63
2023/06/09 03:46:29;;;;;;;31.73;12.13;;;11.20;99.90;;;;;;5043070;28;20040;-63
2023/06/09 03:48:55;;;;;;;39.50;12.15;;;11.20;99.90;;;;;;5043243;28;20045;-62
2023/06/09 03:51:20;;;;;;;35.92;12.63;;;11.20;99.90;;;;;;5042594;28;20065;-63
2023/06/09 03:53:47;;;;;;;33.28;13.27;;;11.20;99.90;;;;;;5025629;28;20045;-64
2023/06/09 03:56:13;;;;;;;34.05;11.70;;;11.30;99.90;;;;;;5026446;28;20044;-63
2023/06/09 03:58:39;;;;;;;38.63;13.63;;;11.30;99.90;;;;;;5042762;28;20104;-65
2023/06/09 04:01:10;;;;;;;40.72;13.27;;;11.40;99.90;;;;;;5043243;28;20083;-62
2023/06/09 04:03:40;;;;;;;32.33;12.32;;;11.50;99.90;;;;;;5043095;28;20041;-63
2023/06/09 04:06:06;;;;;;;32.88;12.07;;;11.60;99.90;;;;;;5039405;28;20262;-63
2023/06/09 04:08:32;;;;;;;36.20;12.98;;;11.70;99.90;;;;;;5043319;28;20041;-63
2023/06/09 04:10:58;;;;;;;30.92;11.70;;;11.80;99.90;;;;;;5045829;28;20415;-63
2023/06/09 04:13:23;;;;;;;35.22;13.23;;;11.90;99.90;;;;;;5030814;28;20139;-64
2023/06/09 04:15:49;;;;;;;30.73;12.73;;;12.00;99.90;;;;;;5046680;28;20120;-63
2023/06/09 04:18:15;;;;;;;32.83;12.02;;;12.10;99.90;;;;;;5046098;28;20120;-64
2023/06/09 04:20:41;;;;;;;34.30;12.90;;;12.20;99.90;;;;;;5044639;28;20079;-64
2023/06/09 04:23:08;;;;;;;32.40;12.68;;;12.20;99.90;;;;;;5029230;28;20041;-64
2023/06/09 04:25:34;;;;;;;32.50;12.73;;;12.30;99.90;;;;;;5046595;28;20045;-62
2023/06/09 04:28:03;;;;;;;152.30;19.30;;;12.30;99.90;;;;;;5046122;28;20506;-67
2023/06/09 04:30:30;;;;;;;34.25;12.68;;;12.40;99.90;;;;;;5063376;28;20491;-64
2023/06/09 04:33:01;;;;;;;27.40;12.70;;;12.40;99.90;;;;;;5048006;28;20126;-61
2023/06/09 04:35:27;;;;;;;33.50;13.70;;;12.50;99.90;;;;;;5046955;28;20048;-63
2023/06/09 04:37:53;;;;;;;34.15;13.73;;;12.60;99.90;;;;;;5045346;28;20523;-64
2023/06/09 04:40:23;;;;;;;39.33;13.93;;;12.60;99.90;;;;;;5045721;28;20049;-70
2023/06/09 04:42:55;;;;;;;35.08;13.23;;;12.70;99.90;;;;;;5046108;28;20037;-64
2023/06/09 04:45:27;;;;;;;26.55;13.27;;;12.80;99.90;;;;;;5046268;28;20040;-64
2023/06/09 04:47:59;;;;;;;32.78;13.45;;;12.80;99.90;;;;;;5046364;28;20187;-63
2023/06/09 04:50:28;;;;;;;33.70;14.50;;;12.90;99.90;;;;;;5046698;28;20041;-64
2023/06/09 04:52:56;;;;;;;34.78;14.63;;;12.90;99.90;;;;;;5029165;28;20071;-64
2023/06/09 04:55:25;;;;;;;35.70;13.65;;;13.00;99.90;;;;;;5062436;28;20143;-64
2023/06/09 04:57:53;;;;;;;31.08;13.48;;;13.00;99.90;;;;;;5065593;28;20048;-65
2023/06/09 05:00:19;;;;;;;31.88;12.90;;;13.10;99.90;;;;;;5050521;28;20299;-66
2023/06/09 05:02:45;;;;;;;30.30;13.13;;;13.10;99.90;;;;;;5045958;28;20045;-64
2023/06/09 05:05:12;;;;;;;31.42;13.70;;;13.10;99.90;;;;;;5051025;28;20040;-65
2023/06/09 05:07:40;;;;;;;38.63;13.20;;;13.10;99.90;;;;;;5030366;28;20063;-68
2023/06/09 05:10:09;;;;;;;31.05;12.85;;;13.10;99.90;;;;;;5048934;28;20070;-66
2023/06/09 05:12:35;;;;;;;34.58;12.73;;;13.20;99.90;;;;;;5065784;28;20056;-64
2023/06/09 05:15:05;;;;;;;35.65;13.32;;;13.30;99.90;;;;;;5053430;28;20041;-65
2023/06/09 05:17:33;;;;;;;30.25;13.02;;;13.40;99.90;;;;;;5028698;28;20094;-66
2023/06/09 05:20:05;;;;;;;33.75;13.63;;;13.40;99.90;;;;;;5046636;28;20051;-65
2023/06/09 05:22:30;;;;;;;32.80;13.75;;;13.50;99.90;;;;;;5045768;28;20051;-71
2023/06/09 05:24:56;;;;;;;35.72;14.00;;;13.50;99.90;;;;;;5049084;28;20886;-69
2023/06/09 05:27:21;;;;;;;33.35;13.50;;;13.60;99.90;;;;;;5065615;28;20503;-67
2023/06/09 05:29:47;;;;;;;32.97;14.30;;;13.60;99.90;;;;;;5065681;28;20526;-67
2023/06/09 05:32:12;;;;;;;41.13;14.45;;;13.60;99.90;;;;;;5051309;28;20044;-63
2023/06/09 05:34:38;;;;;;;32.85;15.25;;;13.60;99.90;;;;;;5060393;28;20132;-67
2023/06/09 05:37:04;;;;;;;33.47;14.63;;;13.50;99.90;;;;;;5043072;28;20471;-65
2023/06/09 05:39:30;;;;;;;36.58;14.25;;;13.50;99.90;;;;;;5045097;28;20044;-70
2023/06/09 05:41:56;;;;;;;35.38;14.10;;;13.50;99.90;;;;;;5046282;28;20510;-67
2023/06/09 05:44:21;;;;;;;34.08;13.02;;;13.60;99.90;;;;;;5064609;28;20094;-65
2023/06/09 05:46:47;;;;;;;36.75;14.40;;;13.70;99.90;;;;;;5062403;28;20512;-65
2023/06/09 05:49:13;;;;;;;30.55;14.90;;;13.80;99.90;;;;;;5044845;28;20838;-65
2023/06/09 05:51:38;;;;;;;30.63;14.23;;;13.90;99.90;;;;;;5063430;28;20071;-66
2023/06/09 05:54:04;;;;;;;31.65;14.43;;;14.00;99.90;;;;;;5063517;28;20071;-68
2023/06/09 05:56:30;;;;;;;32.08;14.60;;;14.00;99.90;;;;;;5063269;28;20518;-67
2023/06/09 05:59:03;;;;;;;30.27;13.85;;;14.20;99.90;;;;;;5047519;28;20079;-66
2023/06/09 06:01:30;;;;;;;29.60;14.52;;;14.20;99.90;;;;;;5061883;28;20048;-69
2023/06/09 06:03:55;;;;;;;26.40;13.57;;;14.30;99.90;;;;;;5041988;28;20091;-67
2023/06/09 06:06:21;;;;;;;33.15;14.05;;;14.50;99.90;;;;;;5058381;28;20503;-67
2023/06/09 06:08:47;;;;;;;25.77;13.05;;;14.50;99.90;;;;;;5062822;28;20426;-69
2023/06/09 06:11:12;;;;;;;29.25;12.35;;;14.60;99.90;;;;;;5046529;28;20033;-67
2023/06/09 06:13:38;;;;;;;26.52;13.00;;;14.70;99.90;;;;;;5063923;28;20058;-67
2023/06/09 06:16:04;;;;;;;27.85;13.25;;;14.80;99.90;;;;;;5062493;28;20043;-66
2023/06/09 06:18:30;;;;;;;24.77;12.02;;;14.80;99.90;;;;;;5051678;28;20036;-67
2023/06/09 06:20:55;;;;;;;29.20;12.18;;;14.90;99.90;;;;;;5061504;28;20041;-71
2023/06/09 06:23:21;;;;;;;27.65;12.45;;;15.10;99.90;;;;;;5059178;28;20041;-67
2023/06/09 06:25:47;;;;;;;29.98;11.45;;;15.20;99.90;;;;;;5027873;28;20087;-63
2023/06/09 06:28:14;;;;;;;25.77;11.70;;;15.40;99.90;;;;;;5044514;28;20029;-66
2023/06/09 06:30:40;;;;;;;29.45;11.40;;;15.60;99.90;;;;;;5043028;28;20128;-66
2023/06/09 06:33:06;;;;;;;25.65;11.65;;;15.70;99.90;;;;;;5044232;28;20127;-66
2023/06/09 06:35:32;;;;;;;26.08;11.13;;;15.70;99.90;;;;;;5042817;28;20105;-65
2023/06/09 06:37:57;;;;;;;26.70;11.93;;;15.80;99.90;;;;;;5059417;28;20045;-68
2023/06/09 06:40:24;;;;;;;25.98;11.52;;;15.80;99.90;;;;;;5044689;28;20082;-65
2023/06/09 06:42:51;;;;;;;26.23;11.27;;;15.80;99.90;;;;;;5027611;28;20045;-69
2023/06/09 06:45:17;;;;;;;30.40;11.73;;;15.90;99.90;;;;;;5054889;28;20154;-64
2023/06/09 06:47:45;;;;;;;22.67;10.15;;;16.00;99.90;;;;;;5061203;28;20086;-69
2023/06/09 06:50:11;;;;;;;20.77;9.82;;;16.10;99.90;;;;;;5033899;28;20068;-68
2023/06/09 06:52:37;;;;;;;27.13;11.00;;;16.20;99.90;;;;;;5042759;28;20053;-74
2023/06/09 06:55:06;;;;;;;26.42;9.85;;;16.30;99.90;;;;;;5044104;28;20044;-72
2023/06/09 06:57:32;;;;;;;24.67;10.25;;;16.40;99.90;;;;;;5038169;28;20049;-68
2023/06/09 06:59:57;;;;;;;22.42;10.00;;;16.40;99.90;;;;;;5043774;28;20115;-69
2023/06/09 07:02:23;;;;;;;22.70;9.02;;;16.50;99.90;;;;;;5043723;28;20045;-69
2023/06/09 07:04:49;;;;;;;25.30;9.38;;;16.60;99.90;;;;;;5043711;28;20033;-64
2023/06/09 07:07:15;;;;;;;25.52;9.10;;;16.70;99.90;;;;;;5041942;28;20344;-68
2023/06/09 07:09:40;;;;;;;22.73;8.98;;;16.80;99.90;;;;;;5043756;28;20048;-65
2023/06/09 07:12:07;;;;;;;21.17;8.48;;;16.90;99.90;;;;;;5044313;28;20041;-68
2023/06/09 07:14:34;;;;;;;21.65;8.90;;;16.90;99.90;;;;;;5044142;28;20056;-65
2023/06/09 07:17:00;;;;;;;19.30;8.50;;;17.00;99.90;;;;;;5043732;28;20123;-67
2023/06/09 07:19:25;;;;;;;19.10;8.25;;;17.00;99.90;;;;;;5044035;28;20191;-66
2023/06/09 07:21:51;;;;;;;24.00;7.95;;;17.10;99.90;;;;;;5058369;28;20055;-65
2023/06/09 07:24:16;;;;;;;22.23;7.90;;;17.10;99.90;;;;;;5050180;28;20055;-71
2023/06/09 07:26:42;;;;;;;23.48;7.68;;;17.20;99.90;;;;;;5043544;28;20037;-64
2023/06/09 07:29:08;;;;;;;21.27;7.88;;;17.30;99.90;;;;;;5043597;28;20397;-64
2023/06/09 07:31:33;;;;;;;22.80;7.00;;;17.50;99.90;;;;;;5043481;28;20041;-68
2023/06/09 07:33:59;;;;;;;15.55;7.47;;;17.60;99.90;;;;;;5043524;28;20036;-70
2023/06/09 07:36:24;;;;;;;28.25;7.65;;;17.70;99.90;;;;;;5042426;28;20045;-71
2023/06/09 07:38:50;;;;;;;18.85;8.20;;;17.80;99.90;;;;;;5042378;28;20046;-69
2023/06/09 07:41:16;;;;;;;20.80;7.20;;;17.90;99.90;;;;;;5043576;28;20044;-68
2023/06/09 07:43:43;;;;;;;19.67;7.68;;;17.90;99.90;;;;;;5043389;28;20044;-67
2023/06/09 07:46:10;;;;;;;19.55;7.25;;;18.00;99.90;;;;;;5044724;28;20553;-71
2023/06/09 07:48:37;;;;;;;22.00;7.97;;;18.10;99.90;;;;;;5047083;28;20119;-67
2023/06/09 07:51:03;;;;;;;21.67;7.50;;;18.20;99.90;;;;;;5046138;28;20428;-66
2023/06/09 07:53:29;;;;;;;16.23;6.75;;;18.30;99.90;;;;;;5046551;28;20048;-68
2023/06/09 07:55:54;;;;;;;16.33;7.10;;;18.40;99.90;;;;;;5047985;28;20075;-68
2023/06/09 07:58:20;;;;;;;25.23;7.20;;;18.50;99.90;;;;;;5030792;28;20091;-70
2023/06/09 08:00:46;;;;;;;16.80;6.78;;;18.60;99.90;;;;;;5063810;28;20396;-66
2023/06/09 08:03:12;;;;;;;16.15;5.97;;;18.70;99.90;;;;;;5046900;28;20049;-69
2023/06/09 08:05:37;;;;;;;20.63;7.22;;;18.90;99.90;;;;;;5046306;28;20052;-70
2023/06/09 08:08:03;;;;;;;17.92;6.68;;;19.00;99.90;;;;;;5046230;28;20037;-69
2023/06/09 08:10:29;;;;;;;16.17;6.25;;;19.20;99.90;;;;;;5047399;28;20052;-68
2023/06/09 08:12:54;;;;;;;21.35;6.97;;;19.30;99.90;;;;;;5047178;28;20044;-66
2023/06/09 08:15:20;;;;;;;15.30;6.10;;;19.40;99.90;;;;;;5047239;28;20505;-65
2023/06/09 08:17:46;;;;;;;16.38;6.68;;;19.50;99.90;;;;;;5046627;28;20049;-69
2023/06/09 08:20:12;;;;;;;15.32;6.93;;;19.60;99.90;;;;;;5047112;28;20044;-68
2023/06/09 08:22:37;;;;;;;18.15;6.60;;;19.60;99.90;;;;;;5044913;28;20060;-68
2023/06/09 08:25:03;;;;;;;15.63;6.55;;;19.80;99.90;;;;;;5046854;28;20068;-65
2023/06/09 08:27:29;;;;;;;16.92;6.60;;;19.90;99.90;;;;;;5046280;28;20476;-71
2023/06/09 08:29:55;;;;;;;20.85;7.00;;;20.00;99.90;;;;;;5047171;28;20077;-64
2023/06/09 08:32:20;;;;;;;17.63;6.70;;;20.00;99.90;;;;;;5046516;28;20041;-67
2023/06/09 08:34:46;;;;;;;13.13;6.57;;;20.10;99.90;;;;;;5053157;28;20059;-70
2023/06/09 08:37:12;;;;;;;21.60;7.20;;;20.10;99.90;;;;;;5065702;28;20139;-66
2023/06/09 08:39:38;;;;;;;14.50;5.35;;;20.20;99.90;;;;;;5067157;28;20040;-65
2023/06/09 08:42:15;;;;;;;15.48;6.20;;;20.30;99.90;;;;;;5054460;28;20152;-64
2023/06/09 08:44:46;;;;;;;17.55;6.47;;;20.40;99.90;;;;;;5046687;28;20083;-67
2023/06/09 08:47:16;;;;;;;19.50;6.63;;;20.40;99.90;;;;;;5046307;28;20044;-64
2023/06/09 08:49:42;;;;;;;16.08;6.70;;;20.40;99.90;;;;;;5046078;28;20045;-65
2023/06/09 08:52:09;;;;;;;18.48;6.93;;;20.40;99.90;;;;;;5044376;28;20052;-67
2023/06/09 08:54:35;;;;;;;17.77;6.50;;;20.60;99.90;;;;;;5046149;28;20041;-66
2023/06/09 08:57:01;;;;;;;14.93;5.97;;;20.70;99.90;;;;;;5029755;28;20115;-67
2023/06/09 08:59:33;;;;;;;12.48;5.43;;;20.70;99.90;;;;;;5046100;28;20044;-66
2023/06/09 09:02:01;;;;;;;14.10;5.45;;;20.80;99.90;;;;;;5046514;28;20481;-67
2023/06/09 09:04:27;;;;;;;17.00;5.95;;;20.90;99.90;;;;;;5046080;28;20041;-64
2023/06/09 09:06:53;;;;;;;13.75;5.78;;;21.00;99.10;;;;;;5044127;28;20483;-69
2023/06/09 09:09:19;;;;;;;11.70;5.63;;;21.10;97.30;;;;;;5029412;28;20076;-68
2023/06/09 09:11:45;;;;;;;15.35;5.18;;;21.20;97.80;;;;;;5046312;28;20622;-64
2023/06/09 09:14:13;;;;;;;12.23;5.20;;;21.30;97.00;;;;;;5046234;28;20583;-66
2023/06/09 09:16:39;;;;;;;14.10;5.68;;;21.50;96.50;;;;;;5046113;28;20408;-68
2023/06/09 09:19:05;;;;;;;12.63;5.30;;;21.70;96.20;;;;;;5046744;28;20033;-70
2023/06/09 09:21:37;;;;;;;10.95;5.07;;;21.80;95.90;;;;;;5045090;28;20049;-65
2023/06/09 09:24:07;;;;;;;16.42;5.10;;;21.90;95.70;;;;;;5045193;28;20106;-67
2023/06/09 09:26:33;;;;;;;15.10;5.88;;;22.10;95.50;;;;;;5046021;28;20508;-64
2023/06/09 09:29:06;;;;;;;17.90;6.05;;;22.00;94.90;;;;;;5045518;28;20033;-65
2023/06/09 09:31:38;;;;;;;13.50;6.38;;;22.10;94.90;;;;;;5045317;28;20055;-65
2023/06/09 09:34:09;;;;;;;19.90;6.28;;;22.10;95.10;;;;;;5045944;28;20122;-68
2023/06/09 09:36:45;;;;;;;11.70;5.22;;;22.20;95.00;;;;;;5061044;28;20094;-68
2023/06/09 09:39:11;;;;;;;13.52;5.72;;;22.30;94.30;;;;;;5044932;28;20053;-71
2023/06/09 09:41:36;;;;;;;18.35;5.82;;;22.40;94.80;;;;;;5045474;28;20064;-65
2023/06/09 09:44:02;;;;;;;16.25;5.28;;;22.40;94.90;;;;;;5045398;28;20131;-63
2023/06/09 09:46:39;;;;;;;18.13;5.80;;;22.60;95.10;;;;;;5045111;28;20645;-66
2023/06/09 09:49:07;;;;;;;15.40;5.43;;;22.90;94.00;;;;;;5044862;28;20045;-64
2023/06/09 09:51:35;;;;;;;16.00;6.43;;;22.90;93.90;;;;;;5044306;28;20041;-68
2023/06/09 09:54:01;;;;;;;14.35;5.95;;;23.00;94.20;;;;;;5045025;28;20037;-65
2023/06/09 09:56:27;;;;;;;11.35;5.25;;;23.10;94.40;;;;;;5045599;28;20045;-64
2023/06/09 09:58:53;;;;;;;10.57;4.75;;;23.10;93.00;;;;;;5044873;28;20060;-70
2023/06/09 10:01:24;;;;;;;14.23;5.38;;;23.30;93.30;;;;;;5045107;28;20131;-65
2023/06/09 10:03:53;;;;;;;12.70;5.60;;;23.50;93.20;;;;;;5044706;28;20077;-67
2023/06/09 10:06:22;;;;;;;12.35;5.22;;;23.50;93.10;;;;;;5044071;28;20087;-66
2023/06/09 10:08:48;;;;;;;13.88;5.95;;;23.50;93.10;;;;;;5043559;28;20843;-66
2023/06/09 10:11:14;;;;;;;11.27;5.38;;;23.60;92.60;;;;;;5045422;28;20090;-65
2023/06/09 10:13:41;;;;;;;12.63;5.40;;;23.60;92.90;;;;;;5045293;28;20041;-67
2023/06/09 10:16:08;;;;;;;12.98;5.10;;;23.70;92.40;;;;;;5045041;28;20057;-64
2023/06/09 10:18:34;;;;;;;16.65;4.65;;;23.90;89.00;;;;;;5047059;28;20048;-65
2023/06/09 10:21:00;;;;;;;12.27;5.65;;;24.00;91.50;;;;;;5043521;28;20053;-64
2023/06/09 10:23:27;;;;;;;14.20;5.82;;;24.10;90.90;;;;;;5044124;28;20236;-65
2023/06/09 10:25:53;;;;;;;14.10;5.15;;;24.10;91.30;;;;;;5044754;28;20128;-67
2023/06/09 10:28:19;;;;;;;14.70;5.50;;;24.20;91.20;;;;;;5044363;28;20120;-71
2023/06/09 10:30:47;;;;;;;10.05;4.90;;;24.20;90.10;;;;;;5044286;28;20045;-70
2023/06/09 10:33:28;;;;;;;8.77;4.43;;;24.20;87.80;;;;;;5027744;28;20041;-65
2023/06/09 10:35:59;;;;;;;12.57;4.75;;;24.40;86.40;;;;;;5043266;28;20044;-68
2023/06/09 10:38:30;;;;;;;11.85;4.60;;;24.50;85.90;;;;;;5043251;28;20120;-65
2023/06/09 10:41:15;;;;;;;9.38;4.70;;;24.70;87.50;;;;;;5044334;28;20080;-65
2023/06/09 10:43:48;;;;;;;9.23;4.50;;;24.70;85.00;;;;;;5044075;28;20049;-72
2023/06/09 10:46:14;;;;;;;9.88;4.80;;;24.80;83.80;;;;;;5044100;28;20119;-68
2023/06/09 10:48:40;;;;;;;11.68;5.20;;;24.90;85.10;;;;;;5044174;28;20132;-66
2023/06/09 10:51:27;;;;;;;14.30;5.35;;;24.90;82.10;;;;;;5043563;28;20029;-65
2023/06/09 10:54:15;;;;;;;11.75;5.43;;;24.80;74.60;;;;;;5048042;28;20032;-73
2023/06/09 10:56:46;;;;;;;12.80;5.15;;;24.80;76.20;;;;;;5051581;28;20068;-67
2023/06/09 10:59:27;;;;;;;16.10;4.70;;;24.90;78.30;;;;;;5043854;28;20060;-66
2023/06/09 11:02:04;;;;;;;14.20;4.85;;;25.00;76.00;;;;;;5044034;28;20056;-66
2023/06/09 11:04:45;;;;;;;16.45;5.15;;;25.00;75.30;;;;;;5043981;28;20102;-68
2023/06/09 11:07:19;;;;;;;11.07;4.75;;;25.10;74.60;;;;;;5041589;28;20052;-74
2023/06/09 11:09:48;;;;;;;17.75;5.35;;;25.10;74.10;;;;;;5044379;28;20068;-71
2023/06/09 11:12:42;;;;;;;11.20;4.95;;;25.30;77.40;;;;;;5044158;28;20051;-66
2023/06/09 11:15:09;;;;;;;12.80;5.30;;;25.30;70.00;;;;;;5043924;28;20090;-64
2023/06/09 11:17:37;;;;;;;12.10;4.80;;;25.30;72.10;;;;;;5043028;28;20424;-64
2023/06/09 11:22:49;;;;;;;11.32;4.72;;;25.40;74.20;;;;;;5041468;28;20052;-68
2023/06/09 11:25:15;;;;;;;17.00;4.88;;;25.60;73.30;;;;;;5044162;28;20037;-65
2023/06/09 11:27:42;;;;;;;10.40;4.38;;;25.70;73.50;;;;;;5043466;28;20052;-67
2023/06/09 11:30:12;;;;;;;10.55;5.15;;;25.80;70.90;;;;;;5043931;28;20044;-69
2023/06/09 11:32:46;;;;;;;10.85;5.30;;;25.80;69.70;;;;;;5043914;28;20041;-68
2023/06/09 11:35:45;;;;;;;11.93;4.80;;;25.80;65.30;;;;;;5043411;28;20045;-66
2023/06/09 11:38:18;;;;;;;10.80;4.90;;;25.70;66.60;;;;;;5042902;28;20037;-62
2023/06/09 11:40:52;;;;;;;9.20;4.70;;;25.70;65.80;;;;;;5043741;28;20451;-70
2023/06/09 11:43:21;;;;;;;10.82;4.65;;;25.70;65.20;;;;;;5043304;28;20299;-66
2023/06/09 11:45:47;;;;;;;8.65;4.93;;;25.70;65.60;;;;;;5043211;28;20037;-67
2023/06/09 11:48:13;;;;;;;10.50;4.63;;;25.80;65.40;;;;;;5043206;28;20264;-69
2023/06/09 11:50:44;;;;;;;10.20;5.03;;;25.90;64.80;;;;;;5042486;28;20040;-65
2023/06/09 11:53:18;;;;;;;9.88;5.05;;;26.00;64.80;;;;;;5042503;28;20043;-67
2023/06/09 11:55:45;;;;;;;11.02;4.50;;;26.00;64.40;;;;;;5043314;28;20045;-65
2023/06/09 11:58:12;;;;;;;13.90;5.43;;;26.20;63.40;;;;;;5044992;28;20041;-68
2023/06/09 12:00:44;;;;;;;9.95;4.95;;;26.30;63.70;;;;;;5043387;28;20056;-68
2023/06/09 12:03:11;;;;;;;10.00;4.63;;;26.40;62.80;;;;;;5043251;28;20574;-68
2023/06/09 12:05:37;;;;;;;12.60;4.95;;;26.40;62.60;;;;;;5038084;28;20406;-68
2023/06/09 12:08:03;;;;;;;10.30;4.85;;;26.50;63.20;;;;;;5061961;28;20057;-67
2023/06/09 12:10:30;;;;;;;13.43;4.22;;;26.40;62.80;;;;;;5064907;28;20041;-67
2023/06/09 12:12:57;;;;;;;10.50;5.25;;;26.40;63.00;;;;;;5050497;28;20398;-65
2023/06/09 12:15:25;;;;;;;8.50;4.53;;;26.40;62.40;;;;;;5043884;28;20156;-68
2023/06/09 12:18:01;;;;;;;10.75;4.40;;;26.50;62.70;;;;;;5026189;28;20056;-71
2023/06/09 12:20:32;;;;;;;11.68;5.30;;;26.60;62.00;;;;;;5042528;28;20091;-67
2023/06/09 12:23:04;;;;;;;9.38;4.93;;;26.50;61.50;;;;;;5045410;28;20040;-65
2023/06/09 12:25:31;;;;;;;10.73;4.40;;;26.40;61.40;;;;;;5063320;28;20041;-65
2023/06/09 12:28:18;;;;;;;12.30;4.93;;;26.40;62.70;;;;;;5043396;28;20581;-68
2023/06/09 12:30:48;;;;;;;12.20;5.15;;;26.50;63.40;;;;;;5057779;28;20291;-67
2023/06/09 12:33:19;;;;;;;11.23;5.30;;;26.60;61.80;;;;;;5067306;28;20492;-65
2023/06/09 12:35:46;;;;;;;9.32;4.45;;;26.50;60.80;;;;;;5053114;28;20043;-64
2023/06/09 12:38:17;;;;;;;12.68;5.18;;;26.50;62.20;;;;;;5067048;28;20048;-66
2023/06/09 12:41:05;;;;;;;11.50;5.45;;;26.60;62.00;;;;;;5066712;28;20047;-67